Time;durP1;ratioP1;P1;durP2;ratioP2;P2;SDS_P1;SDS_P2;PMS_P1;PMS_P2;Temp;Humidity;BMP_temperature;BMP_pressure;BME280_temperature;BME280_humidity;BME280_pressure;Samples;Min_cycle;Max_cycle;Signal;HPM_P1;HPM_P2
2023/06/03 00:00:55;;;;;;;17.10;6.83;;;13.90;25.20;;;;;;5018185;28;47559;-65
2023/06/03 00:03:21;;;;;;;21.13;7.43;;;13.80;25.40;;;;;;5021150;28;46457;-66
2023/06/03 00:05:47;;;;;;;26.30;8.00;;;13.80;25.60;;;;;;5017390;28;46422;-65
2023/06/03 00:08:12;;;;;;;16.77;6.90;;;13.70;25.70;;;;;;5020586;28;46509;-65
2023/06/03 00:10:38;;;;;;;15.40;7.43;;;13.70;26.00;;;;;;5017639;28;46322;-66
2023/06/03 00:13:04;;;;;;;14.20;7.70;;;13.60;26.00;;;;;;5015346;28;46390;-65
2023/06/03 00:15:29;;;;;;;22.70;7.50;;;13.70;26.00;;;;;;5022055;28;46433;-65
2023/06/03 00:17:55;;;;;;;19.67;7.70;;;13.60;25.90;;;;;;5017280;28;46537;-65
2023/06/03 00:20:21;;;;;;;14.03;7.20;;;13.60;26.00;;;;;;5018002;28;47121;-65
2023/06/03 00:22:47;;;;;;;14.20;7.10;;;13.60;26.20;;;;;;5017453;28;46381;-65
2023/06/03 00:25:13;;;;;;;15.90;6.80;;;13.50;26.20;;;;;;5013905;28;46346;-65
2023/06/03 00:27:39;;;;;;;19.10;7.27;;;13.50;26.40;;;;;;5021481;28;46296;-65
2023/06/03 00:30:06;;;;;;;15.30;7.57;;;13.50;26.50;;;;;;5011330;28;46593;-65
2023/06/03 00:32:33;;;;;;;18.67;6.83;;;13.40;26.50;;;;;;5018623;28;46400;-65
2023/06/03 00:34:59;;;;;;;19.37;8.00;;;13.40;26.60;;;;;;5017467;28;46442;-65
2023/06/03 00:37:25;;;;;;;14.07;7.17;;;13.30;26.70;;;;;;5015953;28;46655;-65
2023/06/03 00:39:51;;;;;;;11.80;7.13;;;13.30;26.80;;;;;;5019459;28;46675;-65
2023/06/03 00:42:16;;;;;;;12.10;6.93;;;13.20;26.90;;;;;;5017095;28;46521;-65
2023/06/03 00:44:42;;;;;;;12.80;6.63;;;13.20;27.20;;;;;;5014804;28;46392;-65
2023/06/03 00:47:08;;;;;;;13.77;6.90;;;13.20;27.30;;;;;;5020862;28;46524;-65
2023/06/03 00:49:34;;;;;;;19.17;7.40;;;13.10;27.40;;;;;;5017376;28;47278;-65
2023/06/03 00:52:01;;;;;;;14.87;6.83;;;13.10;27.40;;;;;;5015940;28;46422;-65
2023/06/03 00:54:27;;;;;;;11.90;7.40;;;13.10;27.40;;;;;;5001912;28;46363;-65
2023/06/03 00:56:53;;;;;;;16.23;7.20;;;13.10;27.40;;;;;;5020082;28;46500;-65
2023/06/03 00:59:20;;;;;;;14.80;6.40;;;13.00;27.30;;;;;;5020737;28;46509;-65
2023/06/03 01:01:46;;;;;;;16.57;6.60;;;13.00;27.40;;;;;;5016252;28;46430;-66
2023/06/03 01:04:16;;;;;;;11.77;6.60;;;13.00;27.60;;;;;;5016826;28;45778;-65
2023/06/03 01:07:00;;;;;;;12.70;7.13;;;13.00;27.70;;;;;;5018063;28;46414;-65
2023/06/03 01:09:29;;;;;;;13.43;6.80;;;13.00;27.60;;;;;;5015386;28;47249;-66
2023/06/03 01:12:14;;;;;;;14.30;7.20;;;12.90;27.50;;;;;;5016802;28;46423;-66
2023/06/03 01:14:50;;;;;;;17.83;6.60;;;12.90;28.10;;;;;;5016310;28;46532;-66
2023/06/03 01:17:18;;;;;;;15.07;6.27;;;12.90;27.80;;;;;;5019549;28;46433;-66
2023/06/03 01:19:49;;;;;;;10.57;6.50;;;12.80;28.10;;;;;;5014976;28;46786;-65
2023/06/03 01:22:20;;;;;;;16.60;6.67;;;12.70;28.00;;;;;;5017460;28;46593;-66
2023/06/03 01:24:50;;;;;;;17.37;7.20;;;12.70;28.00;;;;;;5015008;28;46414;-65
2023/06/03 01:27:20;;;;;;;13.43;6.00;;;12.70;28.00;;;;;;5018740;28;46368;-65
2023/06/03 01:29:47;;;;;;;25.60;6.10;;;12.60;27.90;;;;;;5015156;28;46639;-64
2023/06/03 01:32:17;;;;;;;14.50;7.53;;;12.60;27.90;;;;;;5013679;28;45828;-65
2023/06/03 01:34:43;;;;;;;17.67;6.90;;;12.60;27.90;;;;;;5020156;28;46365;-65
2023/06/03 01:37:10;;;;;;;11.63;6.53;;;12.50;27.90;;;;;;5017856;28;46623;-66
2023/06/03 01:39:40;;;;;;;18.70;6.70;;;12.50;27.90;;;;;;5017673;28;47165;-64
2023/06/03 01:42:11;;;;;;;17.80;6.77;;;12.40;27.80;;;;;;5015801;28;46278;-66
2023/06/03 01:44:37;;;;;;;12.20;6.40;;;12.40;27.80;;;;;;5018994;28;46663;-66
2023/06/03 01:47:04;;;;;;;30.13;6.40;;;12.40;27.80;;;;;;5017000;28;46482;-66
2023/06/03 01:49:31;;;;;;;12.70;6.47;;;12.40;27.80;;;;;;5012888;28;47406;-65
2023/06/03 01:51:58;;;;;;;12.60;6.40;;;12.40;27.80;;;;;;5016609;28;46468;-66
2023/06/03 01:54:27;;;;;;;12.47;6.33;;;12.40;28.10;;;;;;5017013;28;46367;-67
2023/06/03 01:56:54;;;;;;;16.67;6.30;;;12.30;28.20;;;;;;5018541;28;46392;-65
2023/06/03 01:59:23;;;;;;;11.83;7.00;;;12.30;28.50;;;;;;5017404;28;46928;-65
2023/06/03 02:01:52;;;;;;;11.43;5.77;;;12.20;28.60;;;;;;5013867;28;46409;-66
2023/06/03 02:04:18;;;;;;;16.40;6.60;;;12.20;28.90;;;;;;5000426;28;46506;-66
2023/06/03 02:06:53;;;;;;;14.70;7.50;;;12.20;29.00;;;;;;5017308;28;46299;-65
2023/06/03 02:09:21;;;;;;;13.77;5.60;;;12.20;29.30;;;;;;5014686;28;47390;-65
2023/06/03 02:11:48;;;;;;;19.57;6.50;;;12.10;29.30;;;;;;5011806;28;46505;-65
2023/06/03 02:14:14;;;;;;;12.87;6.77;;;12.10;29.50;;;;;;5017005;28;46406;-65
2023/06/03 02:16:40;;;;;;;19.43;6.13;;;12.10;29.60;;;;;;5017905;28;46502;-65
2023/06/03 02:19:24;;;;;;;24.00;6.47;;;12.00;29.60;;;;;;5015678;28;46283;-66
2023/06/03 02:21:51;;;;;;;17.07;7.27;;;12.00;29.60;;;;;;5016075;28;46326;-65
2023/06/03 02:24:17;;;;;;;14.40;6.23;;;12.00;29.80;;;;;;5016577;28;46284;-65
2023/06/03 02:26:50;;;;;;;11.03;7.10;;;11.90;29.70;;;;;;5013627;28;46323;-65
2023/06/03 02:29:22;;;;;;;10.70;6.50;;;11.90;29.80;;;;;;5013657;28;47262;-65
2023/06/03 02:31:51;;;;;;;18.83;6.10;;;12.00;30.10;;;;;;5016322;28;46405;-66
2023/06/03 02:34:17;;;;;;;19.23;6.63;;;11.90;30.10;;;;;;4997525;28;46391;-65
2023/06/03 02:36:43;;;;;;;12.30;5.80;;;11.80;30.10;;;;;;5016897;28;45880;-66
2023/06/03 02:39:10;;;;;;;24.37;7.23;;;11.80;30.40;;;;;;5017881;28;47227;-65
2023/06/03 02:41:41;;;;;;;16.33;6.33;;;11.80;30.30;;;;;;5017860;28;46440;-65
2023/06/03 02:44:07;;;;;;;14.17;7.07;;;11.80;30.40;;;;;;5015524;28;47129;-66
2023/06/03 02:46:33;;;;;;;17.30;6.80;;;11.80;30.50;;;;;;4998009;28;46611;-66
2023/06/03 02:49:03;;;;;;;15.13;6.30;;;11.80;30.60;;;;;;5016825;28;46489;-65
2023/06/03 02:51:29;;;;;;;12.93;6.50;;;11.70;30.70;;;;;;5020688;28;46288;-65
2023/06/03 02:53:55;;;;;;;12.87;6.70;;;11.70;30.80;;;;;;5018915;28;46384;-65
2023/06/03 02:56:22;;;;;;;16.73;6.27;;;11.70;31.00;;;;;;4999279;28;46342;-66
2023/06/03 02:58:49;;;;;;;11.87;6.57;;;11.60;31.00;;;;;;5015723;28;46681;-65
2023/06/03 03:01:15;;;;;;;11.87;5.80;;;11.60;31.00;;;;;;5021685;28;46336;-66
2023/06/03 03:03:40;;;;;;;13.37;6.43;;;11.60;31.20;;;;;;5022590;28;46384;-66
2023/06/03 03:06:07;;;;;;;14.10;6.43;;;11.50;31.20;;;;;;5024443;28;46451;-65
2023/06/03 03:08:35;;;;;;;14.87;6.90;;;11.50;31.30;;;;;;5020916;28;46202;-64
2023/06/03 03:11:01;;;;;;;12.10;5.93;;;11.50;31.50;;;;;;5019274;28;46327;-65
2023/06/03 03:13:27;;;;;;;20.00;7.53;;;11.50;31.50;;;;;;5020698;28;45876;-65
2023/06/03 03:15:52;;;;;;;21.63;7.00;;;11.50;32.70;;;;;;5016882;28;46426;-65
2023/06/03 03:18:18;;;;;;;11.47;6.00;;;11.40;31.60;;;;;;5015397;28;46462;-65
2023/06/03 03:20:43;;;;;;;14.33;5.97;;;11.40;31.70;;;;;;5019073;28;46592;-65
2023/06/03 03:23:12;;;;;;;14.03;6.87;;;11.40;31.60;;;;;;5020804;28;46487;-65
2023/06/03 03:25:40;;;;;;;12.83;6.53;;;11.40;31.70;;;;;;5017455;28;46473;-65
2023/06/03 03:28:06;;;;;;;14.97;6.90;;;11.40;31.90;;;;;;5012970;28;47223;-66
2023/06/03 03:30:32;;;;;;;17.40;6.53;;;11.40;31.70;;;;;;5017437;28;46434;-66
2023/06/03 03:32:59;;;;;;;13.77;6.23;;;11.50;31.90;;;;;;5019633;28;46363;-66
2023/06/03 03:35:25;;;;;;;13.43;6.37;;;11.50;31.80;;;;;;5000994;28;46451;-65
2023/06/03 03:38:03;;;;;;;14.87;6.13;;;11.60;31.70;;;;;;5017214;28;46519;-65
2023/06/03 03:40:31;;;;;;;19.93;6.40;;;11.60;31.60;;;;;;5015072;28;46666;-65
2023/06/03 03:42:58;;;;;;;18.73;6.67;;;11.60;31.50;;;;;;5017690;28;46438;-65
2023/06/03 03:45:30;;;;;;;14.83;6.30;;;11.60;31.20;;;;;;4999657;28;46539;-66
2023/06/03 03:48:07;;;;;;;12.73;6.30;;;11.60;31.30;;;;;;5016171;28;46982;-65
2023/06/03 03:50:39;;;;;;;13.60;6.00;;;11.70;31.40;;;;;;5018424;28;46490;-66
2023/06/03 03:53:08;;;;;;;18.63;6.90;;;11.70;31.10;;;;;;4995231;28;45838;-65
2023/06/03 03:55:40;;;;;;;16.20;5.73;;;11.80;31.00;;;;;;5017864;28;45952;-66
2023/06/03 03:58:30;;;;;;;13.47;5.80;;;11.90;30.80;;;;;;5018331;28;46364;-66
2023/06/03 04:00:59;;;;;;;20.87;6.33;;;11.90;30.50;;;;;;5018650;28;45851;-65
2023/06/03 04:03:26;;;;;;;17.70;6.13;;;11.80;30.40;;;;;;5018212;28;46469;-64
2023/06/03 04:05:53;;;;;;;12.40;6.20;;;11.90;30.90;;;;;;5016518;28;46359;-65
2023/06/03 04:08:43;;;;;;;15.47;6.30;;;11.90;31.10;;;;;;5018310;28;46929;-66
2023/06/03 04:11:23;;;;;;;12.70;6.57;;;11.90;31.40;;;;;;5018510;28;46594;-66
2023/06/03 04:13:49;;;;;;;15.00;5.80;;;11.90;31.00;;;;;;5019538;28;46424;-66
2023/06/03 04:16:42;;;;;;;14.60;6.30;;;12.00;30.70;;;;;;5018507;28;46529;-66
2023/06/03 04:19:18;;;;;;;14.73;6.50;;;12.20;30.80;;;;;;4990105;28;47281;-65
2023/06/03 04:21:44;;;;;;;15.37;5.87;;;12.30;30.50;;;;;;5020562;28;46486;-66
2023/06/03 04:24:11;;;;;;;13.00;6.40;;;12.40;30.40;;;;;;5019772;28;45820;-65
2023/06/03 04:26:36;;;;;;;10.73;5.20;;;12.40;30.50;;;;;;5018878;28;46649;-66
2023/06/03 04:29:02;;;;;;;13.33;6.27;;;12.40;30.50;;;;;;5016808;28;47162;-65
2023/06/03 04:31:28;;;;;;;10.60;5.30;;;12.40;30.40;;;;;;5020541;28;46382;-65
2023/06/03 04:33:54;;;;;;;11.27;5.57;;;12.50;30.30;;;;;;5017833;28;46411;-66
2023/06/03 04:36:20;;;;;;;10.77;5.73;;;12.60;30.20;;;;;;5015215;28;46544;-65
2023/06/03 04:38:46;;;;;;;10.97;5.80;;;12.70;30.00;;;;;;5018193;28;46375;-66
2023/06/03 04:41:14;;;;;;;16.10;6.27;;;12.80;29.80;;;;;;5016453;28;46208;-66
2023/06/03 04:43:40;;;;;;;11.43;5.27;;;13.30;28.90;;;;;;5019613;28;46375;-66
2023/06/03 04:46:09;;;;;;;13.87;4.70;;;14.70;28.50;;;;;;5013939;28;46077;-66
2023/06/03 04:48:36;;;;;;;14.50;5.63;;;15.90;26.80;;;;;;5016789;28;47088;-66
2023/06/03 04:51:06;;;;;;;15.10;5.30;;;16.80;25.30;;;;;;5020363;28;46541;-66
2023/06/03 04:53:33;;;;;;;12.37;4.40;;;17.50;23.80;;;;;;5021469;28;46372;-65
2023/06/03 04:56:01;;;;;;;10.47;4.90;;;18.00;22.60;;;;;;5014846;28;46422;-66
2023/06/03 04:58:27;;;;;;;12.00;4.80;;;18.00;22.30;;;;;;5016662;28;46423;-66
2023/06/03 05:00:53;;;;;;;13.53;4.57;;;18.30;21.30;;;;;;5002186;28;46549;-66
2023/06/03 05:03:18;;;;;;;12.37;5.13;;;19.20;20.60;;;;;;5014577;28;46486;-66
2023/06/03 05:05:44;;;;;;;11.00;5.13;;;19.50;19.40;;;;;;5018156;28;46442;-66
2023/06/03 05:08:10;;;;;;;11.00;4.50;;;20.00;18.30;;;;;;5017342;28;47053;-66
2023/06/03 05:10:37;;;;;;;12.40;5.00;;;20.50;16.60;;;;;;5017919;28;46430;-65
2023/06/03 05:13:05;;;;;;;13.67;5.33;;;21.20;15.30;;;;;;5018612;28;45846;-65
2023/06/03 05:15:33;;;;;;;15.73;4.73;;;21.50;13.50;;;;;;5016248;28;46495;-65
2023/06/03 05:18:01;;;;;;;15.40;4.77;;;21.80;12.70;;;;;;5017989;28;48128;-65
2023/06/03 05:20:27;;;;;;;15.90;4.70;;;21.90;12.70;;;;;;5018376;28;46499;-66
2023/06/03 05:22:53;;;;;;;9.70;4.40;;;22.20;12.20;;;;;;5017532;28;46435;-65
2023/06/03 05:25:18;;;;;;;13.10;4.80;;;22.40;11.10;;;;;;5013647;28;46622;-64
2023/06/03 05:27:44;;;;;;;16.43;5.17;;;22.60;11.10;;;;;;5017362;28;46430;-64
2023/06/03 05:30:10;;;;;;;8.43;4.30;;;23.20;9.80;;;;;;5019289;28;46424;-66
2023/06/03 05:32:36;;;;;;;11.37;4.60;;;22.90;9.50;;;;;;5018573;28;46614;-65
2023/06/03 05:35:02;;;;;;;12.70;5.00;;;23.00;9.10;;;;;;5017070;28;46496;-65
2023/06/03 05:37:27;;;;;;;18.17;4.70;;;23.30;8.70;;;;;;5013099;28;47337;-64
2023/06/03 05:39:53;;;;;;;11.70;5.00;;;23.40;8.30;;;;;;5019087;28;46438;-66
2023/06/03 05:42:19;;;;;;;11.83;3.93;;;23.40;8.00;;;;;;5018453;28;46370;-66
2023/06/03 05:44:45;;;;;;;9.70;4.50;;;23.20;7.10;;;;;;5016339;28;46411;-66
2023/06/03 05:47:11;;;;;;;10.50;4.67;;;23.30;6.10;;;;;;5015844;28;46401;-65
2023/06/03 05:49:36;;;;;;;15.17;5.10;;;23.50;5.80;;;;;;5011998;28;46521;-65
2023/06/03 05:52:02;;;;;;;11.17;4.50;;;23.00;6.80;;;;;;5017352;28;46562;-63
2023/06/03 05:54:28;;;;;;;13.90;4.50;;;21.60;9.50;;;;;;5017311;28;46406;-63
2023/06/03 05:56:58;;;;;;;17.00;5.00;;;20.00;12.50;;;;;;5013762;28;46483;-65
2023/06/03 05:59:24;;;;;;;10.33;4.03;;;19.20;14.20;;;;;;5014156;28;46489;-64
2023/06/03 06:01:50;;;;;;;10.43;4.43;;;18.70;15.50;;;;;;5015771;28;46450;-65
2023/06/03 06:04:16;;;;;;;12.80;5.30;;;18.40;16.10;;;;;;5016607;28;46636;-63
2023/06/03 06:06:41;;;;;;;10.23;4.30;;;18.40;16.10;;;;;;5014591;28;47030;-64
2023/06/03 06:09:07;;;;;;;12.30;6.00;;;18.20;16.40;;;;;;5018741;28;46392;-65
2023/06/03 06:11:33;;;;;;;9.70;4.40;;;18.20;16.10;;;;;;5017270;28;46509;-65
2023/06/03 06:13:59;;;;;;;13.80;4.53;;;18.10;15.90;;;;;;5013142;28;46561;-65
2023/06/03 06:16:25;;;;;;;12.60;5.40;;;18.30;15.80;;;;;;5014834;28;46363;-65
2023/06/03 06:18:51;;;;;;;20.17;5.10;;;18.10;15.60;;;;;;5018796;28;46499;-66
2023/06/03 06:21:16;;;;;;;10.33;4.30;;;18.10;15.70;;;;;;5021634;28;46363;-65
2023/06/03 06:23:45;;;;;;;14.60;4.70;;;17.90;15.90;;;;;;5019129;28;46423;-64
2023/06/03 06:26:14;;;;;;;12.93;5.07;;;18.00;15.70;;;;;;5015776;28;47167;-66
2023/06/03 06:28:40;;;;;;;15.63;5.63;;;18.10;15.80;;;;;;5020579;28;45872;-65
2023/06/03 06:31:06;;;;;;;19.03;5.80;;;18.30;15.50;;;;;;5020621;28;45854;-65
2023/06/03 06:33:36;;;;;;;13.50;5.70;;;18.10;15.40;;;;;;5018448;28;46625;-65
2023/06/03 06:36:52;;;;;;;15.23;5.50;;;18.10;15.50;;;;;;5017999;28;47255;-65
2023/06/03 06:39:32;;;;;;;10.57;5.33;;;18.20;15.60;;;;;;4977021;28;46410;-65
2023/06/03 06:42:09;;;;;;;13.53;5.60;;;18.30;15.30;;;;;;5021580;28;46440;-65
2023/06/03 06:44:45;;;;;;;13.67;5.33;;;18.40;15.60;;;;;;5017157;28;46611;-65
2023/06/03 06:47:14;;;;;;;14.27;4.87;;;18.50;15.40;;;;;;5019397;28;46046;-65
2023/06/03 06:49:40;;;;;;;10.70;5.40;;;18.60;15.40;;;;;;5019774;28;45855;-66
2023/06/03 06:52:09;;;;;;;11.93;5.83;;;18.60;15.60;;;;;;5017286;28;46370;-65
2023/06/03 06:54:35;;;;;;;16.90;6.30;;;18.40;15.60;;;;;;5017156;28;46332;-65
2023/06/03 06:57:01;;;;;;;8.53;5.10;;;18.30;16.50;;;;;;5017034;28;46520;-65
2023/06/03 06:59:26;;;;;;;20.07;7.10;;;18.40;15.80;;;;;;5019578;28;45843;-65
2023/06/03 07:01:52;;;;;;;15.77;6.83;;;18.60;15.80;;;;;;5021277;28;46429;-65
2023/06/03 07:04:17;;;;;;;11.33;4.67;;;18.50;15.70;;;;;;5001155;28;46431;-65
2023/06/03 07:06:43;;;;;;;19.90;6.60;;;18.70;15.60;;;;;;5018439;28;47069;-65
2023/06/03 07:09:08;;;;;;;10.83;5.40;;;19.00;15.30;;;;;;5019007;28;46828;-65
2023/06/03 07:11:45;;;;;;;12.40;6.20;;;19.00;15.30;;;;;;5000532;28;46443;-65
2023/06/03 07:14:12;;;;;;;16.80;5.70;;;18.80;15.40;;;;;;5018076;28;46356;-65
2023/06/03 07:16:38;;;;;;;14.50;6.00;;;18.80;15.50;;;;;;5020791;28;46555;-65
2023/06/03 07:19:05;;;;;;;19.60;6.70;;;18.80;15.70;;;;;;5017082;28;46513;-65
2023/06/03 07:21:32;;;;;;;21.50;6.33;;;18.80;15.80;;;;;;5000759;28;46712;-65
2023/06/03 07:23:58;;;;;;;19.97;6.40;;;18.90;15.80;;;;;;5014275;28;46453;-66
2023/06/03 07:26:33;;;;;;;14.00;6.60;;;19.00;15.80;;;;;;5017865;28;46345;-65
2023/06/03 07:28:59;;;;;;;10.80;5.77;;;18.90;15.90;;;;;;5017340;28;46440;-65
2023/06/03 07:31:26;;;;;;;16.73;6.13;;;19.00;15.90;;;;;;5017457;28;46381;-65
2023/06/03 07:33:55;;;;;;;15.03;6.90;;;19.20;15.90;;;;;;5012637;28;46832;-65
2023/06/03 07:36:22;;;;;;;13.27;7.30;;;19.30;15.60;;;;;;5018290;28;47151;-65
2023/06/03 07:38:59;;;;;;;12.90;6.50;;;19.20;15.50;;;;;;5018909;28;46438;-65
2023/06/03 07:41:52;;;;;;;14.73;6.67;;;19.30;15.80;;;;;;5018100;28;46430;-65
2023/06/03 07:44:41;;;;;;;16.93;7.40;;;19.30;15.50;;;;;;5009422;28;45803;-64
2023/06/03 07:47:08;;;;;;;17.97;6.57;;;19.30;15.50;;;;;;5006995;28;46916;-65
2023/06/03 07:49:33;;;;;;;18.47;6.57;;;19.40;15.50;;;;;;5019970;28;46438;-65
2023/06/03 07:51:59;;;;;;;12.23;6.60;;;19.40;15.50;;;;;;5016857;28;46478;-65
2023/06/03 07:54:27;;;;;;;10.50;6.17;;;19.50;15.60;;;;;;5016353;28;46446;-65
2023/06/03 07:56:55;;;;;;;11.77;5.80;;;19.70;15.40;;;;;;5016908;28;46541;-65
2023/06/03 07:59:21;;;;;;;14.30;6.27;;;19.90;15.10;;;;;;5019575;28;46299;-65
2023/06/03 08:01:50;;;;;;;19.20;6.63;;;20.00;14.80;;;;;;5016330;28;46740;-65
2023/06/03 08:04:35;;;;;;;13.63;6.60;;;20.10;14.80;;;;;;5016945;28;46462;-65
2023/06/03 08:07:02;;;;;;;13.97;6.30;;;20.20;14.40;;;;;;5016743;28;46570;-64
2023/06/03 08:09:33;;;;;;;21.03;7.30;;;19.80;15.00;;;;;;5019103;28;46387;-65
2023/06/03 08:12:05;;;;;;;15.63;6.73;;;19.50;15.80;;;;;;5019555;28;46491;-64
2023/06/03 08:14:33;;;;;;;18.90;8.30;;;19.50;15.90;;;;;;5015148;28;46451;-64
2023/06/03 08:17:07;;;;;;;16.77;6.80;;;19.50;16.00;;;;;;5016604;28;48313;-64
2023/06/03 08:19:33;;;;;;;21.23;6.50;;;19.70;15.50;;;;;;5018641;28;46474;-64
2023/06/03 08:21:59;;;;;;;22.80;6.70;;;19.90;15.40;;;;;;5018537;28;46370;-64
2023/06/03 08:24:25;;;;;;;19.73;6.33;;;20.20;15.10;;;;;;5015558;28;46398;-64
2023/06/03 08:26:50;;;;;;;13.53;6.80;;;20.30;15.00;;;;;;5017279;28;46434;-64
2023/06/03 08:29:16;;;;;;;14.17;7.10;;;20.40;14.80;;;;;;5019687;28;46489;-65
2023/06/03 08:31:42;;;;;;;21.63;6.27;;;20.50;14.70;;;;;;5018059;28;46603;-67
2023/06/03 08:34:07;;;;;;;12.50;6.70;;;20.40;15.10;;;;;;5016862;28;46355;-67
2023/06/03 08:36:34;;;;;;;15.00;5.70;;;20.50;14.90;;;;;;5017631;28;47210;-67
2023/06/03 08:39:00;;;;;;;10.37;6.63;;;20.60;14.60;;;;;;5017119;28;45930;-67
2023/06/03 08:41:28;;;;;;;16.23;6.03;;;20.70;14.40;;;;;;5014466;28;46403;-65
2023/06/03 08:44:02;;;;;;;14.47;6.57;;;20.80;14.60;;;;;;5013835;28;46470;-65
2023/06/03 08:47:08;;;;;;;15.77;7.63;;;20.70;14.90;;;;;;5014784;28;47176;-65
2023/06/03 08:49:47;;;;;;;13.93;7.10;;;20.90;14.30;;;;;;5006609;28;46521;-65
2023/06/03 08:52:13;;;;;;;12.30;6.60;;;20.90;14.60;;;;;;5021237;28;46440;-65
2023/06/03 08:54:40;;;;;;;18.17;6.63;;;21.10;14.30;;;;;;5016931;28;45886;-65
2023/06/03 08:57:11;;;;;;;16.50;7.23;;;21.10;14.20;;;;;;5014562;28;46447;-65
2023/06/03 08:59:40;;;;;;;14.40;6.47;;;21.30;14.10;;;;;;5016723;28;46406;-65
2023/06/03 09:02:10;;;;;;;12.37;6.73;;;21.20;14.20;;;;;;5017960;28;46388;-64
2023/06/03 09:04:36;;;;;;;15.00;6.07;;;21.30;14.00;;;;;;5017964;28;46343;-64
2023/06/03 09:07:03;;;;;;;16.17;6.60;;;21.30;13.60;;;;;;5014611;28;47210;-64
2023/06/03 09:09:30;;;;;;;17.03;6.90;;;21.40;13.60;;;;;;5018139;28;46633;-65
2023/06/03 09:11:57;;;;;;;13.43;6.90;;;21.50;13.70;;;;;;5017956;28;45790;-65
2023/06/03 09:14:23;;;;;;;13.53;6.17;;;21.50;13.40;;;;;;5014683;28;46338;-65
2023/06/03 09:16:49;;;;;;;9.70;6.10;;;21.30;13.40;;;;;;5015062;28;46414;-66
2023/06/03 09:19:16;;;;;;;24.23;7.10;;;21.40;13.30;;;;;;5012507;28;46470;-65
2023/06/03 09:21:43;;;;;;;11.50;6.23;;;21.50;13.30;;;;;;5015871;28;46420;-65
2023/06/03 09:24:10;;;;;;;14.70;6.20;;;21.20;13.60;;;;;;5017452;28;46654;-65
2023/06/03 09:26:36;;;;;;;11.33;5.80;;;21.10;14.30;;;;;;5015290;28;46467;-65
2023/06/03 09:29:02;;;;;;;15.90;6.63;;;21.10;14.10;;;;;;5015400;28;46821;-65
2023/06/03 09:31:29;;;;;;;14.97;5.73;;;20.90;14.00;;;;;;5015888;28;46442;-64
2023/06/03 09:33:54;;;;;;;13.70;6.43;;;20.90;14.00;;;;;;5017162;28;46367;-65
2023/06/03 09:36:20;;;;;;;14.33;5.47;;;20.90;14.10;;;;;;5010589;28;46490;-65
2023/06/03 09:38:46;;;;;;;10.83;5.83;;;21.10;14.30;;;;;;5014065;28;46469;-64
2023/06/03 09:41:15;;;;;;;26.33;6.50;;;21.30;13.90;;;;;;5011855;28;46609;-65
2023/06/03 09:43:54;;;;;;;11.63;6.00;;;21.50;13.70;;;;;;5016702;28;46621;-64
2023/06/03 09:46:20;;;;;;;11.20;6.50;;;21.80;12.70;;;;;;5015105;28;46425;-64
2023/06/03 09:48:46;;;;;;;20.23;6.37;;;21.70;13.10;;;;;;5018123;28;46362;-64
2023/06/03 09:51:12;;;;;;;17.23;6.47;;;21.70;13.10;;;;;;5012607;28;46562;-65
2023/06/03 09:53:37;;;;;;;17.83;5.90;;;21.90;12.80;;;;;;5017015;28;46542;-63
2023/06/03 09:56:26;;;;;;;15.93;5.80;;;21.90;12.80;;;;;;5014174;28;46382;-64
2023/06/03 09:59:12;;;;;;;9.37;5.60;;;22.00;12.70;;;;;;4996500;28;46831;-64
2023/06/03 10:01:37;;;;;;;9.00;5.53;;;22.10;12.90;;;;;;4998965;28;46529;-64
2023/06/03 10:04:03;;;;;;;12.97;6.17;;;22.10;12.80;;;;;;5013717;28;46360;-63
2023/06/03 10:06:28;;;;;;;9.17;5.90;;;22.20;12.80;;;;;;5016373;28;46350;-63
2023/06/03 10:08:54;;;;;;;20.70;6.93;;;22.30;12.30;;;;;;5015467;28;46379;-64
2023/06/03 10:11:22;;;;;;;17.63;6.50;;;21.90;12.70;;;;;;5013556;28;46186;-65
2023/06/03 10:13:47;;;;;;;17.23;6.40;;;21.90;12.70;;;;;;5015968;28;46371;-65
2023/06/03 10:16:13;;;;;;;17.33;5.30;;;21.90;12.70;;;;;;5017664;28;46312;-65
2023/06/03 10:18:40;;;;;;;12.37;6.40;;;22.00;12.70;;;;;;5012542;28;46436;-65
2023/06/03 10:21:07;;;;;;;14.83;5.83;;;22.00;13.70;;;;;;5015679;28;46738;-65
2023/06/03 10:23:39;;;;;;;16.93;6.50;;;22.00;12.80;;;;;;5017313;28;46453;-66
2023/06/03 10:26:08;;;;;;;16.10;6.73;;;22.10;12.70;;;;;;5016327;28;47073;-65
2023/06/03 10:28:39;;;;;;;14.20;6.20;;;22.10;12.40;;;;;;5009114;28;46356;-66
2023/06/03 10:31:05;;;;;;;10.77;6.07;;;22.10;12.30;;;;;;5012476;28;46398;-63
2023/06/03 10:33:33;;;;;;;9.80;5.60;;;22.40;12.10;;;;;;5016522;28;45904;-63
2023/06/03 10:36:01;;;;;;;14.10;6.10;;;22.50;11.90;;;;;;5016061;28;46502;-64
2023/06/03 10:38:27;;;;;;;11.43;5.90;;;22.30;11.40;;;;;;5000192;28;46444;-65
2023/06/03 10:40:54;;;;;;;12.73;5.10;;;22.20;11.30;;;;;;5013383;28;45905;-64
2023/06/03 10:43:21;;;;;;;12.20;6.17;;;22.20;11.40;;;;;;5015378;28;46454;-63
2023/06/03 10:45:54;;;;;;;23.73;5.90;;;22.30;11.60;;;;;;5015725;28;47374;-62
2023/06/03 10:48:21;;;;;;;15.80;6.63;;;22.50;11.50;;;;;;5017431;28;46304;-64
2023/06/03 10:50:47;;;;;;;15.40;6.40;;;22.40;11.10;;;;;;5013923;28;46494;-65
2023/06/03 10:53:27;;;;;;;14.10;6.47;;;22.10;11.50;;;;;;5013505;28;45856;-64
2023/06/03 10:56:04;;;;;;;9.57;5.47;;;22.10;11.90;;;;;;5015208;28;47378;-64
2023/06/03 10:58:30;;;;;;;13.03;5.40;;;22.10;11.90;;;;;;5012512;28;46526;-65
2023/06/03 11:00:57;;;;;;;12.67;6.30;;;22.40;11.50;;;;;;5011695;28;46367;-64
2023/06/03 11:03:28;;;;;;;14.23;6.30;;;22.40;11.20;;;;;;5014567;28;45829;-65
2023/06/03 11:06:17;;;;;;;17.73;5.73;;;22.50;11.10;;;;;;5017919;28;46294;-65
2023/06/03 11:09:03;;;;;;;17.40;6.00;;;22.60;11.20;;;;;;5018504;28;45844;-65
2023/06/03 11:11:41;;;;;;;18.37;5.90;;;22.90;10.50;;;;;;5015948;28;46439;-64
2023/06/03 11:14:11;;;;;;;11.57;5.50;;;22.80;10.00;;;;;;5020184;28;46023;-63
2023/06/03 11:16:55;;;;;;;13.63;5.60;;;22.70;9.80;;;;;;5017412;28;46394;-63
2023/06/03 11:19:36;;;;;;;10.33;4.60;;;22.50;9.70;;;;;;5014581;28;46388;-64
2023/06/03 11:22:07;;;;;;;11.50;6.50;;;22.60;9.70;;;;;;5016210;28;46370;-63
2023/06/03 11:24:42;;;;;;;11.80;6.00;;;22.70;9.80;;;;;;5018861;28;46347;-64
2023/06/03 11:27:10;;;;;;;12.43;5.10;;;22.90;9.50;;;;;;5018256;28;47005;-64
2023/06/03 11:29:56;;;;;;;14.83;5.40;;;22.90;9.60;;;;;;5019251;28;46466;-64
2023/06/03 11:32:30;;;;;;;17.33;6.07;;;22.80;9.50;;;;;;5016679;28;46388;-64
2023/06/03 11:34:59;;;;;;;11.93;5.40;;;22.80;9.30;;;;;;5017200;28;46459;-63
2023/06/03 11:37:45;;;;;;;9.13;4.73;;;22.80;9.20;;;;;;5019747;28;46327;-65
2023/06/03 11:40:17;;;;;;;12.53;5.33;;;22.80;9.30;;;;;;5014780;28;46636;-65
2023/06/03 11:42:49;;;;;;;14.83;5.90;;;23.00;9.20;;;;;;5019473;28;46372;-64
2023/06/03 11:45:20;;;;;;;9.67;4.90;;;23.00;9.00;;;;;;5017621;28;46352;-64
2023/06/03 11:47:53;;;;;;;15.77;5.83;;;23.10;8.50;;;;;;5011689;28;47022;-64
2023/06/03 11:50:20;;;;;;;11.13;4.77;;;23.00;8.10;;;;;;5016965;28;46528;-64
2023/06/03 11:52:46;;;;;;;9.67;5.10;;;23.10;8.50;;;;;;5019732;28;46456;-66
2023/06/03 11:55:25;;;;;;;8.60;5.40;;;23.20;8.10;;;;;;5018855;28;46375;-66
2023/06/03 11:57:51;;;;;;;9.67;5.23;;;23.30;7.70;;;;;;5012416;28;46570;-66
2023/06/03 12:00:18;;;;;;;11.37;5.60;;;23.30;7.30;;;;;;5013214;28;45824;-65
2023/06/03 12:02:48;;;;;;;20.53;5.87;;;23.20;7.40;;;;;;5018972;28;46395;-65
2023/06/03 12:05:17;;;;;;;11.00;5.40;;;23.20;7.50;;;;;;5019578;28;46675;-64
2023/06/03 12:07:54;;;;;;;8.90;4.97;;;23.30;7.10;;;;;;5013598;28;46360;-64
2023/06/03 12:10:19;;;;;;;9.53;5.10;;;23.20;7.20;;;;;;5015051;28;46390;-67
2023/06/03 12:12:56;;;;;;;9.83;5.27;;;23.20;7.50;;;;;;5014710;28;46378;-64
2023/06/03 12:15:23;;;;;;;14.90;6.13;;;23.20;7.30;;;;;;5015331;28;46419;-65
2023/06/03 12:17:49;;;;;;;11.90;5.10;;;23.40;7.50;;;;;;5014610;28;46494;-65
2023/06/03 12:20:25;;;;;;;9.30;5.07;;;23.50;7.20;;;;;;5019063;28;46521;-65
2023/06/03 12:23:03;;;;;;;9.60;5.80;;;23.40;7.10;;;;;;5018272;28;46418;-65
2023/06/03 12:25:30;;;;;;;10.43;5.33;;;23.30;7.50;;;;;;5011280;28;46325;-65
2023/06/03 12:27:56;;;;;;;10.63;5.30;;;23.30;7.90;;;;;;5019517;28;46438;-66
2023/06/03 12:30:30;;;;;;;15.67;5.10;;;23.40;8.00;;;;;;5017767;28;46450;-64
2023/06/03 12:32:57;;;;;;;8.10;5.40;;;23.60;7.60;;;;;;5020103;28;46386;-66
2023/06/03 12:35:25;;;;;;;11.30;5.17;;;23.70;7.10;;;;;;5015387;28;46506;-65
2023/06/03 12:38:05;;;;;;;13.83;5.43;;;23.60;7.00;;;;;;5014476;28;46449;-66
2023/06/03 12:40:32;;;;;;;8.43;4.67;;;23.40;7.10;;;;;;5015470;28;45832;-65
2023/06/03 12:42:58;;;;;;;14.73;5.23;;;23.40;7.10;;;;;;5000247;28;46411;-64
2023/06/03 12:45:25;;;;;;;11.03;5.03;;;23.50;6.70;;;;;;5016694;28;46494;-64
2023/06/03 12:47:52;;;;;;;8.57;4.77;;;23.60;6.30;;;;;;5013324;28;46739;-64